Kalamita — EMSV — position and weather

sailwx.info

Track history (hours):
 
Tides and Currents Weather Stations Pressure Air Temp Water Temp Dewpoint Dewpoint Depression Visibility Wind Speed Wind Dir Waves Ship Positions

Kalamita

Last reported at 2016-Mar-14 06:14 UTC. Time now 2016-Apr-30 08:58 UTC.
Position N 44°28' E 034°16'.
Warning: this ship's position is 47 days out of date.

Length 55 m; draft 4 m.

Type: Fishing. MMSI: 272440000.

Date/timePositionNaut miles runAvg speedWind from/ knotsBaromVisibWave heightAir tempDewpointWater temp
2016-Mar-14 06:14N 44°28' E 034°16'6 9.3
2016-Mar-14 05:33N 44°31' E 034°24'9 9.4
2016-Mar-14 04:33N 44°35' E 034°36'129 9.0
2016-Mar-13 14:13N 44°33' E 037°38'6 9.5
2016-Mar-13 13:32N 44°29' E 037°45'74 4.3
2016-Mar-12 20:21N 43°55' E 039°15'1 0.3
2016-Mar-12 15:27N 43°56' E 039°15'3 3.2
2016-Mar-12 14:33N 43°58' E 039°12'2 1.5
2016-Mar-12 13:33N 43°57' E 039°11'0 0.2
2016-Mar-12 12:33N 43°57' E 039°10'0 0.4
2016-Mar-12 11:33N 43°57' E 039°10'1 0.5
2016-Mar-12 10:30N 43°57' E 039°09'1 0.6
2016-Mar-12 09:30N 43°57' E 039°08'1 0.6
2016-Mar-12 08:33N 43°57' E 039°08'1 0.6
2016-Mar-12 07:34N 43°57' E 039°08'2 2.0
2016-Mar-12 06:33N 43°59' E 039°07'3 2.7
2016-Mar-12 05:33N 43°59' E 039°10'3 3.1
2016-Mar-12 04:32N 43°57' E 039°14'1 0.1
2016-Mar-11 23:29N 43°56' E 039°14'8 8.2
2016-Mar-11 22:33N 44°01' E 039°06'8 7.7
2016-Mar-11 21:33N 44°06' E 038°58'3 1.6
2016-Mar-11 19:28N 44°10' E 038°56'0 0.0
2016-Mar-11 18:22N 44°10' E 038°56'0 0.0
2016-Mar-11 17:16N 44°10' E 038°56'0 0.0
2016-Mar-11 16:28N 44°10' E 038°56'3 3.5
2016-Mar-11 15:33N 44°07' E 038°59'4 3.5
2016-Mar-11 14:34N 44°07' E 038°54'3 3.4
2016-Mar-11 13:33N 44°06' E 038°59'3 3.1
2016-Mar-11 12:33N 44°04' E 039°02'1 1.2
2016-Mar-11 11:33N 44°05' E 039°00'3 3.1
2016-Mar-11 10:33N 44°07' E 038°57'3 2.5
2016-Mar-11 09:33N 44°05' E 038°60'3 3.0
2016-Mar-11 08:33N 44°06' E 038°56'3 2.6
2016-Mar-11 07:33N 44°04' E 038°58'2 2.3
2016-Mar-11 06:33N 44°06' E 038°57'3 2.9
2016-Mar-11 05:33N 44°09' E 038°55'3 2.8
2016-Mar-11 04:33N 44°11' E 038°52'1 0.7
2016-Mar-11 03:33N 44°10' E 038°52'3 2.6
2016-Mar-11 02:33N 44°08' E 038°55'2 1.7
2016-Mar-11 01:33N 44°10' E 038°55'3 3.1
2016-Mar-11 00:33N 44°08' E 038°58'2 2.4
2016-Mar-10 23:33N 44°10' E 038°56'1 1.1
2016-Mar-10 22:31N 44°10' E 038°55'0 0.0
2016-Mar-10 21:31N 44°10' E 038°55'0 0.0
2016-Mar-10 20:31N 44°10' E 038°55'0 0.0
2016-Mar-10 19:31N 44°10' E 038°55'0 0.0
2016-Mar-10 18:27N 44°10' E 038°55'5 0.9
2016-Mar-10 12:34N 44°13' E 038°49'11 1.2
2016-Mar-10 04:05N 44°18' E 038°36'8 0.4
2016-Mar-09 08:33N 44°14' E 038°45'1 0.7
2016-Mar-09 07:27N 44°15' E 038°44'3 2.9
2016-Mar-09 06:26N 44°12' E 038°47'1 0.8
2016-Mar-09 05:08N 44°12' E 038°48'2 3.4
2016-Mar-09 04:33N 44°12' E 038°51'3 3.2
2016-Mar-09 03:33N 44°10' E 038°54'4 1.3
2016-Mar-09 00:13N 44°13' E 038°50'2 3.5
2016-Mar-08 23:33N 44°13' E 038°47'4 0.6
2016-Mar-08 15:33N 44°11' E 038°52'1 1.1
2016-Mar-08 14:32N 44°10' E 038°53'4 4.2
2016-Mar-08 13:33N 44°07' E 038°55'2 2.3
2016-Mar-08 12:33N 44°08' E 038°57'3 2.6
2016-Mar-08 11:33N 44°10' E 038°54'3 2.8
2016-Mar-08 10:33N 44°10' E 038°50'3 2.9
2016-Mar-08 09:33N 44°12' E 038°47'4 3.7
2016-Mar-08 08:33N 44°10' E 038°51'3 2.8
2016-Mar-08 07:33N 44°08' E 038°53'2 2.1
2016-Mar-08 06:34N 44°10' E 038°53'1 0.6
2016-Mar-08 04:33N 44°09' E 038°53'2 1.8
2016-Mar-08 03:33N 44°11' E 038°53'0 0.0
2016-Mar-07 16:21N 44°10' E 038°52'1 1.8
2016-Mar-07 15:33N 44°12' E 038°51'3 2.7
2016-Mar-07 14:32N 44°13' E 038°48'2 0.2
2016-Mar-07 03:08N 44°12' E 038°50'1 1.5
2016-Mar-07 02:30N 44°13' E 038°49'1 0.6
2016-Mar-07 01:32N 44°13' E 038°49'48 6.0
2016-Mar-06 17:33N 44°35' E 037°50'4 3.5
2016-Mar-06 16:33N 44°37' E 037°46'1 1.3
2016-Mar-06 15:33N 44°38' E 037°44'2 1.6
2016-Mar-06 14:33N 44°38' E 037°42'3 2.8
2016-Mar-06 13:33N 44°36' E 037°39'142 7.1
2016-Mar-05 17:29N 44°30' E 034°20'  
Track history (hours):
 
Tides and Currents Weather Stations Pressure Air Temp Water Temp Dewpoint Dewpoint Depression Visibility Wind Speed Wind Dir Waves Ship Positions

Kalamita

Last reported at 2016-Mar-14 06:14 UTC. Time now 2016-Apr-30 08:58 UTC.
Position N 44°28' E 034°16'.
Warning: this ship's position is 47 days out of date.

Length 55 m; draft 4 m.

Type: Fishing. MMSI: 272440000.

Date/timePositionNaut miles runAvg speedWind from/ knotsBaromVisibWave heightAir tempDewpointWater temp
2016-Mar-14 06:14N 44°28' E 034°16'6 9.3
2016-Mar-14 05:33N 44°31' E 034°24'9 9.4
2016-Mar-14 04:33N 44°35' E 034°36'129 9.0
2016-Mar-13 14:13N 44°33' E 037°38'6 9.5
2016-Mar-13 13:32N 44°29' E 037°45'74 4.3
2016-Mar-12 20:21N 43°55' E 039°15'1 0.3
2016-Mar-12 15:27N 43°56' E 039°15'3 3.2
2016-Mar-12 14:33N 43°58' E 039°12'2 1.5
2016-Mar-12 13:33N 43°57' E 039°11'0 0.2
2016-Mar-12 12:33N 43°57' E 039°10'0 0.4
2016-Mar-12 11:33N 43°57' E 039°10'1 0.5
2016-Mar-12 10:30N 43°57' E 039°09'1 0.6
2016-Mar-12 09:30N 43°57' E 039°08'1 0.6
2016-Mar-12 08:33N 43°57' E 039°08'1 0.6
2016-Mar-12 07:34N 43°57' E 039°08'2 2.0
2016-Mar-12 06:33N 43°59' E 039°07'3 2.7
2016-Mar-12 05:33N 43°59' E 039°10'3 3.1
2016-Mar-12 04:32N 43°57' E 039°14'1 0.1
2016-Mar-11 23:29N 43°56' E 039°14'8 8.2
2016-Mar-11 22:33N 44°01' E 039°06'8 7.7
2016-Mar-11 21:33N 44°06' E 038°58'3 1.6
2016-Mar-11 19:28N 44°10' E 038°56'0 0.0
2016-Mar-11 18:22N 44°10' E 038°56'0 0.0
2016-Mar-11 17:16N 44°10' E 038°56'0 0.0
2016-Mar-11 16:28N 44°10' E 038°56'3 3.5
2016-Mar-11 15:33N 44°07' E 038°59'4 3.5
2016-Mar-11 14:34N 44°07' E 038°54'3 3.4
2016-Mar-11 13:33N 44°06' E 038°59'3 3.1
2016-Mar-11 12:33N 44°04' E 039°02'1 1.2
2016-Mar-11 11:33N 44°05' E 039°00'3 3.1
2016-Mar-11 10:33N 44°07' E 038°57'3 2.5
2016-Mar-11 09:33N 44°05' E 038°60'3 3.0
2016-Mar-11 08:33N 44°06' E 038°56'3 2.6
2016-Mar-11 07:33N 44°04' E 038°58'2 2.3
2016-Mar-11 06:33N 44°06' E 038°57'3 2.9
2016-Mar-11 05:33N 44°09' E 038°55'3 2.8
2016-Mar-11 04:33N 44°11' E 038°52'1 0.7
2016-Mar-11 03:33N 44°10' E 038°52'3 2.6
2016-Mar-11 02:33N 44°08' E 038°55'2 1.7
2016-Mar-11 01:33N 44°10' E 038°55'3 3.1
2016-Mar-11 00:33N 44°08' E 038°58'2 2.4
2016-Mar-10 23:33N 44°10' E 038°56'1 1.1
2016-Mar-10 22:31N 44°10' E 038°55'0 0.0
2016-Mar-10 21:31N 44°10' E 038°55'0 0.0
2016-Mar-10 20:31N 44°10' E 038°55'0 0.0
2016-Mar-10 19:31N 44°10' E 038°55'0 0.0
2016-Mar-10 18:27N 44°10' E 038°55'5 0.9
2016-Mar-10 12:34N 44°13' E 038°49'11 1.2
2016-Mar-10 04:05N 44°18' E 038°36'8 0.4
2016-Mar-09 08:33N 44°14' E 038°45'1 0.7
2016-Mar-09 07:27N 44°15' E 038°44'3 2.9
2016-Mar-09 06:26N 44°12' E 038°47'1 0.8
2016-Mar-09 05:08N 44°12' E 038°48'2 3.4
2016-Mar-09 04:33N 44°12' E 038°51'3 3.2
2016-Mar-09 03:33N 44°10' E 038°54'4 1.3
2016-Mar-09 00:13N 44°13' E 038°50'2 3.5
2016-Mar-08 23:33N 44°13' E 038°47'4 0.6
2016-Mar-08 15:33N 44°11' E 038°52'1 1.1
2016-Mar-08 14:32N 44°10' E 038°53'4 4.2
2016-Mar-08 13:33N 44°07' E 038°55'2 2.3
2016-Mar-08 12:33N 44°08' E 038°57'3 2.6
2016-Mar-08 11:33N 44°10' E 038°54'3 2.8
2016-Mar-08 10:33N 44°10' E 038°50'3 2.9
2016-Mar-08 09:33N 44°12' E 038°47'4 3.7
2016-Mar-08 08:33N 44°10' E 038°51'3 2.8
2016-Mar-08 07:33N 44°08' E 038°53'2 2.1
2016-Mar-08 06:34N 44°10' E 038°53'1 0.6
2016-Mar-08 04:33N 44°09' E 038°53'2 1.8
2016-Mar-08 03:33N 44°11' E 038°53'0 0.0
2016-Mar-07 16:21N 44°10' E 038°52'1 1.8
2016-Mar-07 15:33N 44°12' E 038°51'3 2.7
2016-Mar-07 14:32N 44°13' E 038°48'2 0.2
2016-Mar-07 03:08N 44°12' E 038°50'1 1.5
2016-Mar-07 02:30N 44°13' E 038°49'1 0.6
2016-Mar-07 01:32N 44°13' E 038°49'48 6.0
2016-Mar-06 17:33N 44°35' E 037°50'4 3.5
2016-Mar-06 16:33N 44°37' E 037°46'1 1.3
2016-Mar-06 15:33N 44°38' E 037°44'2 1.6
2016-Mar-06 14:33N 44°38' E 037°42'3 2.8
2016-Mar-06 13:33N 44°36' E 037°39'142 7.1
2016-Mar-05 17:29N 44°30' E 034°20'  

Dump ship's entire track history